sensor_id;sensor_type;location;lat;lon;timestamp;pressure;altitude;pressure_sealevel;temperature;humidity
17072;BME280;7731;50.720;6.912;2022-09-13T00:01:49;99594.44;;;17.06;79.78
17072;BME280;7731;50.720;6.912;2022-09-13T00:04:19;99591.06;;;17.15;78.40
17072;BME280;7731;50.720;6.912;2022-09-13T00:06:52;99586.75;;;17.25;77.89
17072;BME280;7731;50.720;6.912;2022-09-13T00:09:22;99592.88;;;17.24;77.33
17072;BME280;7731;50.720;6.912;2022-09-13T00:11:52;99597.78;;;17.18;78.04
17072;BME280;7731;50.720;6.912;2022-09-13T00:14:28;99594.25;;;17.19;77.76
17072;BME280;7731;50.720;6.912;2022-09-13T00:16:58;99580.41;;;17.08;78.42
17072;BME280;7731;50.720;6.912;2022-09-13T00:19:29;99569.72;;;17.02;79.00
17072;BME280;7731;50.720;6.912;2022-09-13T00:22:01;99571.22;;;17.04;79.31
17072;BME280;7731;50.720;6.912;2022-09-13T00:24:33;99562.91;;;17.10;79.45
17072;BME280;7731;50.720;6.912;2022-09-13T00:27:04;99563.56;;;17.03;78.64
17072;BME280;7731;50.720;6.912;2022-09-13T00:29:34;99570.28;;;17.05;79.71
17072;BME280;7731;50.720;6.912;2022-09-13T00:32:06;99578.09;;;16.84;80.41
17072;BME280;7731;50.720;6.912;2022-09-13T00:34:39;99592.50;;;16.77;82.25
17072;BME280;7731;50.720;6.912;2022-09-13T00:37:14;99594.78;;;16.60;83.60
17072;BME280;7731;50.720;6.912;2022-09-13T00:39:44;99593.75;;;16.73;82.78
17072;BME280;7731;50.720;6.912;2022-09-13T00:42:16;99585.84;;;16.74;82.75
17072;BME280;7731;50.720;6.912;2022-09-13T00:44:56;99578.88;;;16.75;82.53
17072;BME280;7731;50.720;6.912;2022-09-13T00:47:34;99574.72;;;16.63;83.68
17072;BME280;7731;50.720;6.912;2022-09-13T00:50:13;99570.66;;;16.70;82.49
17072;BME280;7731;50.720;6.912;2022-09-13T00:52:54;99567.00;;;16.51;84.57
17072;BME280;7731;50.720;6.912;2022-09-13T00:55:37;99567.00;;;16.51;85.13
17072;BME280;7731;50.720;6.912;2022-09-13T00:58:19;99567.19;;;16.59;85.01
17072;BME280;7731;50.720;6.912;2022-09-13T01:00:55;99577.38;;;16.51;84.41
17072;BME280;7731;50.720;6.912;2022-09-13T01:03:29;99572.59;;;16.47;85.64
17072;BME280;7731;50.720;6.912;2022-09-13T01:06:06;99569.59;;;16.51;85.79
17072;BME280;7731;50.720;6.912;2022-09-13T01:08:51;99574.72;;;16.63;84.23
17072;BME280;7731;50.720;6.912;2022-09-13T01:11:34;99578.28;;;16.40;85.59
17072;BME280;7731;50.720;6.912;2022-09-13T01:14:09;99585.16;;;16.30;87.09
17072;BME280;7731;50.720;6.912;2022-09-13T01:16:47;99582.19;;;16.35;86.80
17072;BME280;7731;50.720;6.912;2022-09-13T01:19:19;99583.03;;;16.14;88.75
17072;BME280;7731;50.720;6.912;2022-09-13T01:25:57;99590.09;;;16.33;86.85
17072;BME280;7731;50.720;6.912;2022-09-13T01:29:27;99575.59;;;16.31;88.08
17072;BME280;7731;50.720;6.912;2022-09-13T01:32:21;99577.50;;;16.29;87.80
17072;BME280;7731;50.720;6.912;2022-09-13T01:35:09;99576.06;;;16.36;88.64
17072;BME280;7731;50.720;6.912;2022-09-13T01:37:53;99572.38;;;16.38;87.91
17072;BME280;7731;50.720;6.912;2022-09-13T01:40:47;99573.78;;;16.42;87.53
17072;BME280;7731;50.720;6.912;2022-09-13T01:43:39;99580.16;;;16.59;87.11
17072;BME280;7731;50.720;6.912;2022-09-13T01:46:21;99563.66;;;16.60;86.57
17072;BME280;7731;50.720;6.912;2022-09-13T01:49:18;99560.03;;;16.73;85.16
17072;BME280;7731;50.720;6.912;2022-09-13T01:51:59;99571.31;;;16.62;86.14
17072;BME280;7731;50.720;6.912;2022-09-13T01:54:47;99569.34;;;16.54;88.14
17072;BME280;7731;50.720;6.912;2022-09-13T01:57:28;99570.97;;;16.55;88.57
17072;BME280;7731;50.720;6.912;2022-09-13T02:00:05;99558.72;;;16.57;88.37
17072;BME280;7731;50.720;6.912;2022-09-13T02:02:42;99556.38;;;16.54;88.37
17072;BME280;7731;50.720;6.912;2022-09-13T02:05:27;99558.59;;;16.38;88.80
17072;BME280;7731;50.720;6.912;2022-09-13T02:08:04;99564.69;;;16.27;90.43
17072;BME280;7731;50.720;6.912;2022-09-13T02:10:41;99559.75;;;16.24;90.97
17072;BME280;7731;50.720;6.912;2022-09-13T02:13:20;99560.56;;;16.24;90.70
17072;BME280;7731;50.720;6.912;2022-09-13T02:15:58;99560.13;;;16.19;91.68
17072;BME280;7731;50.720;6.912;2022-09-13T02:18:38;99555.13;;;16.28;92.13
17072;BME280;7731;50.720;6.912;2022-09-13T02:21:17;99555.50;;;16.23;91.38
17072;BME280;7731;50.720;6.912;2022-09-13T02:23:54;99547.97;;;16.20;91.65
17072;BME280;7731;50.720;6.912;2022-09-13T02:26:29;99539.66;;;16.16;91.74
17072;BME280;7731;50.720;6.912;2022-09-13T02:29:14;99547.81;;;16.33;91.69
17072;BME280;7731;50.720;6.912;2022-09-13T02:31:54;99545.09;;;16.34;91.52
17072;BME280;7731;50.720;6.912;2022-09-13T02:34:32;99540.72;;;16.35;91.35
17072;BME280;7731;50.720;6.912;2022-09-13T02:37:09;99538.72;;;16.17;93.40
17072;BME280;7731;50.720;6.912;2022-09-13T02:39:52;99529.91;;;16.09;93.73
17072;BME280;7731;50.720;6.912;2022-09-13T02:42:34;99530.22;;;16.15;94.63
17072;BME280;7731;50.720;6.912;2022-09-13T02:45:09;99535.16;;;16.18;93.92
17072;BME280;7731;50.720;6.912;2022-09-13T02:47:50;99528.66;;;16.24;94.50
17072;BME280;7731;50.720;6.912;2022-09-13T02:50:44;99523.97;;;16.39;91.75
17072;BME280;7731;50.720;6.912;2022-09-13T02:53:32;99530.09;;;16.38;91.86
17072;BME280;7731;50.720;6.912;2022-09-13T02:56:23;99531.16;;;16.35;91.37
17072;BME280;7731;50.720;6.912;2022-09-13T02:59:06;99512.63;;;16.40;91.38
17072;BME280;7731;50.720;6.912;2022-09-13T03:01:44;99520.59;;;16.48;90.97
17072;BME280;7731;50.720;6.912;2022-09-13T03:04:16;99532.72;;;16.48;91.79
17072;BME280;7731;50.720;6.912;2022-09-13T03:06:52;99523.88;;;16.50;92.05
17072;BME280;7731;50.720;6.912;2022-09-13T03:09:25;99525.78;;;16.48;93.07
17072;BME280;7731;50.720;6.912;2022-09-13T03:12:28;99529.06;;;16.50;92.70
17072;BME280;7731;50.720;6.912;2022-09-13T03:15:19;99518.13;;;16.47;93.47
17072;BME280;7731;50.720;6.912;2022-09-13T03:18:14;99519.81;;;16.57;94.18
17072;BME280;7731;50.720;6.912;2022-09-13T03:21:01;99518.72;;;16.60;93.38
17072;BME280;7731;50.720;6.912;2022-09-13T03:23:46;99522.06;;;16.41;95.26
17072;BME280;7731;50.720;6.912;2022-09-13T03:26:43;99517.22;;;16.57;93.78
17072;BME280;7731;50.720;6.912;2022-09-13T03:29:26;99505.72;;;16.81;92.89
17072;BME280;7731;50.720;6.912;2022-09-13T03:32:15;99506.03;;;16.88;93.04
17072;BME280;7731;50.720;6.912;2022-09-13T03:34:54;99512.59;;;16.92;94.25
17072;BME280;7731;50.720;6.912;2022-09-13T03:37:36;99508.78;;;16.86;96.11
17072;BME280;7731;50.720;6.912;2022-09-13T03:40:16;99502.00;;;17.05;92.07
17072;BME280;7731;50.720;6.912;2022-09-13T03:43:02;99490.09;;;17.12;93.15
17072;BME280;7731;50.720;6.912;2022-09-13T03:45:46;99471.41;;;17.18;93.79
17072;BME280;7731;50.720;6.912;2022-09-13T03:48:21;99481.50;;;17.02;96.20
17072;BME280;7731;50.720;6.912;2022-09-13T03:50:54;99479.44;;;17.05;93.92
17072;BME280;7731;50.720;6.912;2022-09-13T03:53:28;99483.13;;;16.93;96.19
17072;BME280;7731;50.720;6.912;2022-09-13T03:55:59;99482.97;;;16.94;95.82
17072;BME280;7731;50.720;6.912;2022-09-13T03:58:32;99472.75;;;17.03;96.19
17072;BME280;7731;50.720;6.912;2022-09-13T04:01:02;99480.09;;;16.88;96.38
17072;BME280;7731;50.720;6.912;2022-09-13T04:03:32;99483.91;;;16.93;97.40
17072;BME280;7731;50.720;6.912;2022-09-13T04:06:08;99482.84;;;16.86;97.81
17072;BME280;7731;50.720;6.912;2022-09-13T04:08:41;99497.50;;;16.76;99.65
17072;BME280;7731;50.720;6.912;2022-09-13T04:11:12;99501.56;;;16.69;100.00
17072;BME280;7731;50.720;6.912;2022-09-13T04:13:51;99515.19;;;16.61;100.00
17072;BME280;7731;50.720;6.912;2022-09-13T04:16:24;99515.94;;;16.73;100.00
17072;BME280;7731;50.720;6.912;2022-09-13T04:18:54;99529.69;;;16.64;100.00
17072;BME280;7731;50.720;6.912;2022-09-13T04:21:25;99517.47;;;16.85;100.00
17072;BME280;7731;50.720;6.912;2022-09-13T04:23:55;99523.19;;;16.79;100.00
17072;BME280;7731;50.720;6.912;2022-09-13T04:26:28;99520.25;;;16.93;98.46
17072;BME280;7731;50.720;6.912;2022-09-13T04:29:00;99524.81;;;16.80;99.86
17072;BME280;7731;50.720;6.912;2022-09-13T04:31:30;99520.78;;;16.87;98.01
17072;BME280;7731;50.720;6.912;2022-09-13T04:34:03;99527.66;;;16.77;98.57
17072;BME280;7731;50.720;6.912;2022-09-13T04:36:37;99534.72;;;16.86;98.90
17072;BME280;7731;50.720;6.912;2022-09-13T04:39:07;99539.56;;;16.79;98.33
17072;BME280;7731;50.720;6.912;2022-09-13T04:41:40;99548.97;;;17.02;96.50
17072;BME280;7731;50.720;6.912;2022-09-13T04:44:19;99551.84;;;16.99;97.66
17072;BME280;7731;50.720;6.912;2022-09-13T04:46:50;99552.41;;;16.81;100.00
17072;BME280;7731;50.720;6.912;2022-09-13T04:49:23;99549.94;;;16.79;98.99
17072;BME280;7731;50.720;6.912;2022-09-13T04:51:53;99554.06;;;16.82;99.67
17072;BME280;7731;50.720;6.912;2022-09-13T04:54:23;99552.41;;;16.81;96.51
17072;BME280;7731;50.720;6.912;2022-09-13T04:56:53;99552.41;;;16.81;97.47
17072;BME280;7731;50.720;6.912;2022-09-13T04:59:29;99548.88;;;16.82;97.50
17072;BME280;7731;50.720;6.912;2022-09-13T05:01:59;99546.47;;;16.90;95.49
17072;BME280;7731;50.720;6.912;2022-09-13T05:04:29;99544.97;;;16.88;95.43
17072;BME280;7731;50.720;6.912;2022-09-13T05:06:59;99540.09;;;16.83;95.07
17072;BME280;7731;50.720;6.912;2022-09-13T05:09:30;99541.09;;;16.82;96.42
17072;BME280;7731;50.720;6.912;2022-09-13T05:12:00;99547.47;;;16.78;97.56
17072;BME280;7731;50.720;6.912;2022-09-13T05:14:33;99545.28;;;16.83;96.71
17072;BME280;7731;50.720;6.912;2022-09-13T05:17:12;99537.72;;;16.91;95.82
17072;BME280;7731;50.720;6.912;2022-09-13T05:19:42;99530.94;;;17.00;95.31
17072;BME280;7731;50.720;6.912;2022-09-13T05:22:13;99529.56;;;17.06;94.71
17072;BME280;7731;50.720;6.912;2022-09-13T05:24:43;99524.56;;;17.14;93.65
17072;BME280;7731;50.720;6.912;2022-09-13T05:27:15;99535.34;;;17.19;94.21
17072;BME280;7731;50.720;6.912;2022-09-13T05:29:55;99532.34;;;17.14;93.99
17072;BME280;7731;50.720;6.912;2022-09-13T05:32:26;99537.00;;;17.20;93.71
17072;BME280;7731;50.720;6.912;2022-09-13T05:34:56;99528.41;;;17.29;92.03
17072;BME280;7731;50.720;6.912;2022-09-13T05:37:26;99538.94;;;17.38;90.15
17072;BME280;7731;50.720;6.912;2022-09-13T05:39:57;99529.66;;;17.45;88.40
17072;BME280;7731;50.720;6.912;2022-09-13T05:42:38;99530.19;;;17.58;87.62
17072;BME280;7731;50.720;6.912;2022-09-13T05:45:11;99536.91;;;17.71;85.54
17072;BME280;7731;50.720;6.912;2022-09-13T05:47:41;99535.28;;;17.70;85.30
17072;BME280;7731;50.720;6.912;2022-09-13T05:50:11;99530.19;;;17.58;85.73
17072;BME280;7731;50.720;6.912;2022-09-13T05:53:02;99527.75;;;17.66;84.94
17072;BME280;7731;50.720;6.912;2022-09-13T05:55:32;99527.22;;;17.73;83.94
17072;BME280;7731;50.720;6.912;2022-09-13T05:58:03;99525.00;;;17.78;84.21
17072;BME280;7731;50.720;6.912;2022-09-13T06:00:35;99517.09;;;17.89;83.33
17072;BME280;7731;50.720;6.912;2022-09-13T06:03:11;99522.03;;;17.92;83.60
17072;BME280;7731;50.720;6.912;2022-09-13T06:05:44;99516.28;;;17.79;84.26
17072;BME280;7731;50.720;6.912;2022-09-13T06:08:15;99516.28;;;17.98;83.38
17072;BME280;7731;50.720;6.912;2022-09-13T06:10:53;99511.19;;;17.87;83.47
17072;BME280;7731;50.720;6.912;2022-09-13T06:13:25;99518.44;;;17.74;85.36
17072;BME280;7731;50.720;6.912;2022-09-13T06:16:01;99518.16;;;17.77;85.81
17072;BME280;7731;50.720;6.912;2022-09-13T06:18:32;99520.06;;;17.84;84.25
17072;BME280;7731;50.720;6.912;2022-09-13T06:21:08;99527.59;;;17.88;82.71
17072;BME280;7731;50.720;6.912;2022-09-13T06:23:43;99527.75;;;18.06;81.89
17072;BME280;7731;50.720;6.912;2022-09-13T06:26:17;99531.84;;;18.18;80.50
17072;BME280;7731;50.720;6.912;2022-09-13T06:28:57;99527.16;;;18.31;79.93
17072;BME280;7731;50.720;6.912;2022-09-13T06:31:30;99523.88;;;18.29;80.93
17072;BME280;7731;50.720;6.912;2022-09-13T06:34:14;99525.25;;;18.24;82.17
17072;BME280;7731;50.720;6.912;2022-09-13T06:36:44;99523.19;;;18.27;81.65
17072;BME280;7731;50.720;6.912;2022-09-13T06:39:15;99521.44;;;18.65;79.37
17072;BME280;7731;50.720;6.912;2022-09-13T06:41:48;99521.19;;;18.96;78.07
17072;BME280;7731;50.720;6.912;2022-09-13T06:44:18;99516.47;;;19.09;76.54
17072;BME280;7731;50.720;6.912;2022-09-13T06:46:57;99518.56;;;19.24;75.86
17072;BME280;7731;50.720;6.912;2022-09-13T06:49:28;99514.97;;;19.07;76.94
17072;BME280;7731;50.720;6.912;2022-09-13T06:51:58;99508.28;;;19.04;77.38
17072;BME280;7731;50.720;6.912;2022-09-13T06:54:30;99508.03;;;18.98;78.46
17072;BME280;7731;50.720;6.912;2022-09-13T06:57:01;99512.06;;;19.10;78.69
17072;BME280;7731;50.720;6.912;2022-09-13T06:59:34;99504.41;;;19.08;78.87
17072;BME280;7731;50.720;6.912;2022-09-13T07:02:08;99514.81;;;19.08;79.25
17072;BME280;7731;50.720;6.912;2022-09-13T07:04:46;99517.75;;;19.23;78.35
17072;BME280;7731;50.720;6.912;2022-09-13T07:07:18;99519.03;;;19.37;76.65
17072;BME280;7731;50.720;6.912;2022-09-13T07:09:48;99512.63;;;19.50;77.12
17072;BME280;7731;50.720;6.912;2022-09-13T07:12:18;99507.88;;;19.63;76.21
17072;BME280;7731;50.720;6.912;2022-09-13T07:14:48;99507.25;;;19.69;74.93
17072;BME280;7731;50.720;6.912;2022-09-13T07:17:22;99514.09;;;19.70;74.75
17072;BME280;7731;50.720;6.912;2022-09-13T07:19:57;99514.09;;;19.70;75.92
17072;BME280;7731;50.720;6.912;2022-09-13T07:22:34;99513.22;;;19.43;78.44
17072;BME280;7731;50.720;6.912;2022-09-13T07:25:06;99514.56;;;19.84;74.69
17072;BME280;7731;50.720;6.912;2022-09-13T07:27:36;99510.84;;;19.68;76.96
17072;BME280;7731;50.720;6.912;2022-09-13T07:30:07;99506.13;;;20.08;74.11
17072;BME280;7731;50.720;6.912;2022-09-13T07:32:45;99511.44;;;20.24;72.84
17072;BME280;7731;50.720;6.912;2022-09-13T07:35:16;99509.34;;;20.62;70.27
17072;BME280;7731;50.720;6.912;2022-09-13T07:37:46;99517.41;;;21.12;67.72
17072;BME280;7731;50.720;6.912;2022-09-13T07:40:16;99511.00;;;21.06;67.09
17072;BME280;7731;50.720;6.912;2022-09-13T07:42:47;99521.47;;;21.06;68.12
17072;BME280;7731;50.720;6.912;2022-09-13T07:45:17;99522.16;;;21.25;67.93
17072;BME280;7731;50.720;6.912;2022-09-13T07:47:51;99523.84;;;21.67;66.98
17072;BME280;7731;50.720;6.912;2022-09-13T07:50:22;99526.47;;;22.08;64.85
17072;BME280;7731;50.720;6.912;2022-09-13T07:52:52;99523.00;;;22.16;64.14
17072;BME280;7731;50.720;6.912;2022-09-13T07:55:23;99515.34;;;22.14;65.75
17072;BME280;7731;50.720;6.912;2022-09-13T07:57:55;99516.16;;;22.15;64.56
17072;BME280;7731;50.720;6.912;2022-09-13T08:00:25;99507.84;;;21.94;66.91
17072;BME280;7731;50.720;6.912;2022-09-13T08:02:58;99509.78;;;22.34;64.49
17072;BME280;7731;50.720;6.912;2022-09-13T08:05:28;99497.63;;;22.49;64.18
17072;BME280;7731;50.720;6.912;2022-09-13T08:07:58;99503.31;;;22.92;62.42
17072;BME280;7731;50.720;6.912;2022-09-13T08:10:29;99501.72;;;22.43;64.42
17072;BME280;7731;50.720;6.912;2022-09-13T08:13:00;99505.59;;;22.64;63.08
17072;BME280;7731;50.720;6.912;2022-09-13T08:15:33;99504.06;;;23.41;60.42
17072;BME280;7731;50.720;6.912;2022-09-13T08:18:09;99501.59;;;23.08;62.13
17072;BME280;7731;50.720;6.912;2022-09-13T08:20:39;99491.22;;;24.22;58.04
17072;BME280;7731;50.720;6.912;2022-09-13T08:23:11;99497.91;;;25.21;53.61
17072;BME280;7731;50.720;6.912;2022-09-13T08:25:41;99502.22;;;25.07;52.67
17072;BME280;7731;50.720;6.912;2022-09-13T08:28:16;99501.53;;;24.38;54.35
17072;BME280;7731;50.720;6.912;2022-09-13T08:30:53;99502.00;;;25.45;51.83
17072;BME280;7731;50.720;6.912;2022-09-13T08:33:29;99503.59;;;26.17;49.17
17072;BME280;7731;50.720;6.912;2022-09-13T08:36:06;99508.63;;;25.41;50.89
17072;BME280;7731;50.720;6.912;2022-09-13T08:38:36;99498.25;;;25.82;49.30
17072;BME280;7731;50.720;6.912;2022-09-13T08:41:56;99501.00;;;25.09;51.48
17072;BME280;7731;50.720;6.912;2022-09-13T08:44:33;99499.94;;;25.62;51.22
17072;BME280;7731;50.720;6.912;2022-09-13T08:47:30;99506.06;;;26.26;49.77
17072;BME280;7731;50.720;6.912;2022-09-13T08:50:14;99495.97;;;25.73;51.29
17072;BME280;7731;50.720;6.912;2022-09-13T08:53:11;99498.03;;;26.34;48.77
17072;BME280;7731;50.720;6.912;2022-09-13T08:55:56;99505.72;;;25.79;49.32
17072;BME280;7731;50.720;6.912;2022-09-13T08:59:02;99501.19;;;27.19;45.87
17072;BME280;7731;50.720;6.912;2022-09-13T09:01:54;99506.81;;;26.96;46.59
17072;BME280;7731;50.720;6.912;2022-09-13T09:04:36;99513.81;;;27.44;45.27
17072;BME280;7731;50.720;6.912;2022-09-13T09:07:16;99504.38;;;26.88;45.64
17072;BME280;7731;50.720;6.912;2022-09-13T09:09:53;99504.47;;;27.35;43.10
17072;BME280;7731;50.720;6.912;2022-09-13T09:12:35;99516.16;;;27.05;44.69
17072;BME280;7731;50.720;6.912;2022-09-13T09:15:15;99512.22;;;28.10;43.84
17072;BME280;7731;50.720;6.912;2022-09-13T09:17:55;99513.28;;;26.94;43.88
17072;BME280;7731;50.720;6.912;2022-09-13T09:20:32;99511.78;;;28.26;42.78
17072;BME280;7731;50.720;6.912;2022-09-13T09:23:12;99508.56;;;29.15;40.17
17072;BME280;7731;50.720;6.912;2022-09-13T09:25:50;99507.94;;;29.26;38.97
17072;BME280;7731;50.720;6.912;2022-09-13T09:28:26;99523.38;;;28.12;40.89
17072;BME280;7731;50.720;6.912;2022-09-13T09:31:04;99516.53;;;28.70;39.40
17072;BME280;7731;50.720;6.912;2022-09-13T09:33:55;99524.38;;;28.18;40.25
17072;BME280;7731;50.720;6.912;2022-09-13T09:36:38;99520.03;;;29.41;38.21
17072;BME280;7731;50.720;6.912;2022-09-13T09:39:14;99520.16;;;28.82;39.23
17072;BME280;7731;50.720;6.912;2022-09-13T09:41:54;99528.78;;;28.50;41.04
17072;BME280;7731;50.720;6.912;2022-09-13T09:44:28;99526.59;;;28.93;39.50
17072;BME280;7731;50.720;6.912;2022-09-13T09:47:06;99536.38;;;27.60;42.35
17072;BME280;7731;50.720;6.912;2022-09-13T09:49:45;99526.00;;;28.12;41.33
17072;BME280;7731;50.720;6.912;2022-09-13T09:52:35;99521.84;;;28.56;38.39
17072;BME280;7731;50.720;6.912;2022-09-13T09:55:24;99530.09;;;28.01;40.17
17072;BME280;7731;50.720;6.912;2022-09-13T09:58:00;99527.44;;;27.94;40.96
17072;BME280;7731;50.720;6.912;2022-09-13T10:00:34;99526.75;;;27.25;41.90
17072;BME280;7731;50.720;6.912;2022-09-13T10:03:16;99526.03;;;26.83;43.38
17072;BME280;7731;50.720;6.912;2022-09-13T10:05:50;99527.22;;;27.42;41.67
17072;BME280;7731;50.720;6.912;2022-09-13T10:08:27;99517.41;;;27.09;43.27
17072;BME280;7731;50.720;6.912;2022-09-13T10:11:06;99516.81;;;27.21;42.35
17072;BME280;7731;50.720;6.912;2022-09-13T10:13:36;99519.53;;;26.79;43.59
17072;BME280;7731;50.720;6.912;2022-09-13T10:16:26;99514.81;;;27.30;43.35
17072;BME280;7731;50.720;6.912;2022-09-13T10:19:22;99508.50;;;28.24;41.46
17072;BME280;7731;50.720;6.912;2022-09-13T10:22:01;99509.09;;;28.92;39.28
17072;BME280;7731;50.720;6.912;2022-09-13T10:24:32;99509.78;;;27.75;41.07
17072;BME280;7731;50.720;6.912;2022-09-13T10:27:25;99503.28;;;28.04;39.75
17072;BME280;7731;50.720;6.912;2022-09-13T10:29:59;99507.63;;;26.55;43.54
17072;BME280;7731;50.720;6.912;2022-09-13T10:32:32;99505.66;;;27.19;42.97
17072;BME280;7731;50.720;6.912;2022-09-13T10:35:14;99504.44;;;27.21;43.50
17072;BME280;7731;50.720;6.912;2022-09-13T10:37:47;99492.81;;;26.96;44.60
17072;BME280;7731;50.720;6.912;2022-09-13T10:40:26;99486.56;;;27.17;43.38
17072;BME280;7731;50.720;6.912;2022-09-13T10:43:06;99490.91;;;27.38;42.02
17072;BME280;7731;50.720;6.912;2022-09-13T10:45:48;99494.25;;;26.15;44.43
17072;BME280;7731;50.720;6.912;2022-09-13T10:48:20;99494.91;;;26.65;43.63
17072;BME280;7731;50.720;6.912;2022-09-13T10:51:06;99483.44;;;26.73;43.39
17072;BME280;7731;50.720;6.912;2022-09-13T10:53:39;99480.50;;;26.54;44.14
17072;BME280;7731;50.720;6.912;2022-09-13T10:56:21;99479.09;;;27.20;44.54
17072;BME280;7731;50.720;6.912;2022-09-13T10:59:15;99476.38;;;26.94;44.14
17072;BME280;7731;50.720;6.912;2022-09-13T11:02:02;99471.78;;;26.54;45.94
17072;BME280;7731;50.720;6.912;2022-09-13T11:05:08;99466.19;;;26.70;44.16
17072;BME280;7731;50.720;6.912;2022-09-13T11:08:13;99456.47;;;28.31;40.26
17072;BME280;7731;50.720;6.912;2022-09-13T11:10:59;99463.91;;;27.36;41.97
17072;BME280;7731;50.720;6.912;2022-09-13T11:13:54;99462.16;;;26.81;44.20
17072;BME280;7731;50.720;6.912;2022-09-13T11:16:46;99461.75;;;26.71;45.23
17072;BME280;7731;50.720;6.912;2022-09-13T11:19:48;99461.09;;;26.20;45.52
17072;BME280;7731;50.720;6.912;2022-09-13T11:22:47;99458.81;;;26.59;45.59
17072;BME280;7731;50.720;6.912;2022-09-13T11:25:40;99465.25;;;26.43;46.23
17072;BME280;7731;50.720;6.912;2022-09-13T11:28:31;99462.69;;;27.32;43.32
17072;BME280;7731;50.720;6.912;2022-09-13T11:31:24;99450.00;;;28.27;40.37
17072;BME280;7731;50.720;6.912;2022-09-13T11:34:21;99457.41;;;27.99;41.29
17072;BME280;7731;50.720;6.912;2022-09-13T11:40:29;99447.97;;;28.29;39.46
17072;BME280;7731;50.720;6.912;2022-09-13T11:43:24;99453.25;;;28.29;41.10
17072;BME280;7731;50.720;6.912;2022-09-13T11:46:11;99450.31;;;28.51;39.71
17072;BME280;7731;50.720;6.912;2022-09-13T11:52:10;99463.38;;;26.85;44.00
17072;BME280;7731;50.720;6.912;2022-09-13T11:55:02;99460.94;;;26.77;45.38
17072;BME280;7731;50.720;6.912;2022-09-13T11:57:39;99462.16;;;26.75;44.81
17072;BME280;7731;50.720;6.912;2022-09-13T12:00:20;99451.91;;;26.51;45.10
17072;BME280;7731;50.720;6.912;2022-09-13T12:03:04;99457.38;;;26.08;46.55
17072;BME280;7731;50.720;6.912;2022-09-13T12:05:46;99455.97;;;26.54;44.83
17072;BME280;7731;50.720;6.912;2022-09-13T12:08:22;99446.13;;;26.69;45.57
17072;BME280;7731;50.720;6.912;2022-09-13T12:11:02;99445.84;;;27.59;42.81
17072;BME280;7731;50.720;6.912;2022-09-13T12:13:41;99443.06;;;26.66;44.51
17072;BME280;7731;50.720;6.912;2022-09-13T12:16:21;99442.00;;;27.62;42.85
17072;BME280;7731;50.720;6.912;2022-09-13T12:19:00;99433.88;;;27.37;42.89
17072;BME280;7731;50.720;6.912;2022-09-13T12:21:36;99442.81;;;27.49;43.71
17072;BME280;7731;50.720;6.912;2022-09-13T12:24:16;99438.31;;;27.76;42.53
17072;BME280;7731;50.720;6.912;2022-09-13T12:26:53;99431.63;;;27.74;42.09
17072;BME280;7731;50.720;6.912;2022-09-13T12:29:33;99436.00;;;26.73;45.43
17072;BME280;7731;50.720;6.912;2022-09-13T12:32:09;99432.47;;;26.52;44.38
17072;BME280;7731;50.720;6.912;2022-09-13T12:34:48;99432.63;;;27.19;43.64
17072;BME280;7731;50.720;6.912;2022-09-13T12:37:44;99416.00;;;27.32;44.21
17072;BME280;7731;50.720;6.912;2022-09-13T12:40:40;99411.13;;;27.76;43.17
17072;BME280;7731;50.720;6.912;2022-09-13T12:44:15;99424.94;;;27.58;42.88
17072;BME280;7731;50.720;6.912;2022-09-13T12:47:27;99414.56;;;27.70;41.87
17072;BME280;7731;50.720;6.912;2022-09-13T12:50:40;99421.28;;;27.19;43.90
17072;BME280;7731;50.720;6.912;2022-09-13T12:53:35;99412.47;;;26.78;44.52
17072;BME280;7731;50.720;6.912;2022-09-13T12:56:34;99408.72;;;27.34;43.19
17072;BME280;7731;50.720;6.912;2022-09-13T12:59:46;99403.00;;;26.97;43.62
17072;BME280;7731;50.720;6.912;2022-09-13T13:02:29;99395.34;;;27.36;42.27
17072;BME280;7731;50.720;6.912;2022-09-13T13:05:05;99400.19;;;26.37;44.66
17072;BME280;7731;50.720;6.912;2022-09-13T13:07:56;99405.69;;;26.49;44.99
17072;BME280;7731;50.720;6.912;2022-09-13T13:10:32;99408.97;;;26.58;45.78
17072;BME280;7731;50.720;6.912;2022-09-13T13:13:32;99414.63;;;26.48;45.56
17072;BME280;7731;50.720;6.912;2022-09-13T13:16:26;99414.44;;;26.63;45.62
17072;BME280;7731;50.720;6.912;2022-09-13T13:18:59;99416.97;;;26.98;44.81
17072;BME280;7731;50.720;6.912;2022-09-13T13:21:39;99409.72;;;27.33;43.99
17072;BME280;7731;50.720;6.912;2022-09-13T13:24:47;99401.13;;;27.91;40.84
17072;BME280;7731;50.720;6.912;2022-09-13T13:27:38;99399.75;;;27.29;42.13
17072;BME280;7731;50.720;6.912;2022-09-13T13:33:28;99398.13;;;27.21;43.32
17072;BME280;7731;50.720;6.912;2022-09-13T13:36:21;99397.72;;;27.04;43.64
17072;BME280;7731;50.720;6.912;2022-09-13T13:38:53;99395.94;;;27.51;42.15
17072;BME280;7731;50.720;6.912;2022-09-13T13:41:47;99385.72;;;27.75;41.92
17072;BME280;7731;50.720;6.912;2022-09-13T13:45:04;99385.53;;;27.03;42.50
17072;BME280;7731;50.720;6.912;2022-09-13T13:48:12;99375.25;;;28.20;39.94
17072;BME280;7731;50.720;6.912;2022-09-13T13:51:17;99370.25;;;28.05;40.89
17072;BME280;7731;50.720;6.912;2022-09-13T13:54:00;99376.16;;;27.87;40.72
17072;BME280;7731;50.720;6.912;2022-09-13T13:56:47;99369.69;;;27.83;41.48
17072;BME280;7731;50.720;6.912;2022-09-13T13:59:25;99371.38;;;27.57;42.11
17072;BME280;7731;50.720;6.912;2022-09-13T14:02:00;99372.38;;;27.09;43.50
17072;BME280;7731;50.720;6.912;2022-09-13T14:05:07;99372.56;;;27.01;43.77
17072;BME280;7731;50.720;6.912;2022-09-13T14:08:25;99368.13;;;27.02;43.53
17072;BME280;7731;50.720;6.912;2022-09-13T14:11:14;99367.31;;;26.95;44.61
17072;BME280;7731;50.720;6.912;2022-09-13T14:14:14;99363.66;;;26.96;45.03
17072;BME280;7731;50.720;6.912;2022-09-13T14:17:12;99364.84;;;26.73;45.66
17072;BME280;7731;50.720;6.912;2022-09-13T14:19:55;99359.91;;;26.43;46.31
17072;BME280;7731;50.720;6.912;2022-09-13T14:22:29;99359.91;;;26.56;45.69
17072;BME280;7731;50.720;6.912;2022-09-13T14:25:22;99361.16;;;26.61;45.24
17072;BME280;7731;50.720;6.912;2022-09-13T14:27:58;99361.16;;;26.61;45.46
17072;BME280;7731;50.720;6.912;2022-09-13T14:30:35;99359.78;;;26.78;45.70
17072;BME280;7731;50.720;6.912;2022-09-13T14:33:20;99351.00;;;26.58;46.24